createdAt,value
2019-01-03T00:02:23.475Z,0.00
2019-01-03T00:05:13.269Z,-0.10
2019-01-03T00:08:05.961Z,-0.10
2019-01-03T00:10:59.210Z,0.00
2019-01-03T00:13:55.475Z,0.10
2019-01-03T00:16:45.153Z,0.10
2019-01-03T00:19:49.887Z,0.10
2019-01-03T00:22:39.731Z,0.10
2019-01-03T00:25:43.959Z,0.00
2019-01-03T00:28:35.986Z,0.10
2019-01-03T00:31:24.722Z,0.00
2019-01-03T00:34:06.532Z,-0.10
2019-01-03T00:36:59.189Z,-0.10
2019-01-03T00:39:58.223Z,0.00
2019-01-03T00:42:56.877Z,0.00
2019-01-03T00:45:45.838Z,-0.10
2019-01-03T00:48:50.840Z,-0.10
2019-01-03T00:51:40.558Z,-0.10
2019-01-03T00:54:39.341Z,-0.10
2019-01-03T00:57:45.415Z,-0.10
2019-01-03T01:00:44.299Z,-0.10
2019-01-03T01:03:32.250Z,-0.10
2019-01-03T01:06:27.882Z,-0.10
2019-01-03T01:09:33.575Z,-0.10
2019-01-03T01:12:41.102Z,-0.10
2019-01-03T01:15:21.157Z,-0.10
2019-01-03T01:18:09.924Z,-0.10
2019-01-03T01:20:59.992Z,-0.10
2019-01-03T01:23:52.664Z,-0.10
2019-01-03T01:26:41.517Z,-0.10
2019-01-03T01:29:49.814Z,-0.10
2019-01-03T01:32:52.363Z,-0.10
2019-01-03T01:35:51.052Z,-0.10
2019-01-03T01:38:30.315Z,-0.10
2019-01-03T01:41:14.716Z,0.00
2019-01-03T01:44:00.451Z,0.00
2019-01-03T01:46:44.697Z,0.00
2019-01-03T01:49:41.271Z,0.00
2019-01-03T01:52:29.721Z,0.00
2019-01-03T01:55:17.902Z,0.00
2019-01-03T01:58:16.452Z,0.00
2019-01-03T02:01:04.456Z,-0.10
2019-01-03T02:03:46.061Z,-0.10
2019-01-03T02:06:34.261Z,0.00
2019-01-03T02:09:39.578Z,0.00
2019-01-03T02:12:34.963Z,0.00
2019-01-03T02:15:29.131Z,0.00
2019-01-03T02:18:20.642Z,0.00
2019-01-03T02:21:17.082Z,0.00
2019-01-03T02:24:06.971Z,0.00
2019-01-03T02:27:00.326Z,0.10
2019-01-03T02:29:52.679Z,0.00
2019-01-03T02:32:40.342Z,0.00
2019-01-03T02:35:39.339Z,0.00
2019-01-03T02:38:40.371Z,0.00
2019-01-03T02:41:31.111Z,0.00
2019-01-03T02:44:19.282Z,-0.10
2019-01-03T02:47:18.221Z,-0.10
2019-01-03T02:50:07.214Z,-0.10
2019-01-03T02:53:14.422Z,-0.10
2019-01-03T02:55:57.102Z,-0.10
2019-01-03T02:58:56.132Z,-0.10
2019-01-03T03:01:44.573Z,-0.10
2019-01-03T03:04:32.761Z,-0.20
2019-01-03T03:07:20.803Z,-0.20
2019-01-03T03:10:16.592Z,-0.20
2019-01-03T03:13:12.452Z,-0.30
2019-01-03T03:16:02.230Z,-0.30
2019-01-03T03:18:50.023Z,-0.50
2019-01-03T03:21:37.856Z,-0.50
2019-01-03T03:24:32.314Z,-0.60
2019-01-03T03:27:31.619Z,-0.70
2019-01-03T03:30:20.918Z,-0.70
2019-01-03T03:33:11.021Z,-0.80
2019-01-03T03:36:08.217Z,-0.80
2019-01-03T03:38:56.937Z,-0.80
2019-01-03T03:42:01.434Z,-0.70
2019-01-03T03:44:54.096Z,-0.70
2019-01-03T03:47:43.673Z,-0.70
2019-01-03T03:50:32.332Z,-0.70
2019-01-03T03:53:25.496Z,-0.70
2019-01-03T03:56:18.052Z,-0.70
2019-01-03T03:59:08.932Z,-0.70
2019-01-03T04:01:49.201Z,-0.70
2019-01-03T04:04:44.860Z,-0.70
2019-01-03T04:07:46.324Z,-0.70
2019-01-03T04:10:47.868Z,-0.70
2019-01-03T04:13:40.552Z,-0.70
2019-01-03T04:16:32.277Z,-0.70
2019-01-03T04:19:30.674Z,-0.70
2019-01-03T04:22:19.850Z,-0.60
2019-01-03T04:25:11.977Z,-0.60
2019-01-03T04:27:58.608Z,-0.60
2019-01-03T04:30:48.655Z,-0.60
2019-01-03T04:33:47.416Z,-0.70
2019-01-03T04:36:30.849Z,-0.70
2019-01-03T04:39:20.448Z,-0.70
2019-01-03T04:42:09.506Z,-0.60
2019-01-03T04:44:58.891Z,-0.60
2019-01-03T04:47:57.022Z,-0.70
2019-01-03T04:50:49.963Z,-0.70
2019-01-03T04:53:46.295Z,-0.60
2019-01-03T04:56:34.897Z,-0.60
2019-01-03T04:59:23.158Z,-0.60
2019-01-03T05:02:11.076Z,-0.60
2019-01-03T05:05:00.093Z,-0.50
2019-01-03T05:07:57.534Z,-0.50
2019-01-03T05:10:53.222Z,-0.50
2019-01-03T05:13:36.057Z,-0.40
2019-01-03T05:16:40.768Z,-0.50
2019-01-03T05:19:34.336Z,-0.40
2019-01-03T05:22:22.213Z,-0.40
2019-01-03T05:25:24.403Z,-0.30
2019-01-03T05:28:32.236Z,-0.30
2019-01-03T05:31:18.383Z,-0.30
2019-01-03T05:34:20.006Z,-0.30
2019-01-03T05:37:08.139Z,-0.30
2019-01-03T05:40:06.739Z,-0.30
2019-01-03T05:43:08.384Z,-0.30
2019-01-03T05:46:07.287Z,-0.30
2019-01-03T05:48:56.548Z,-0.30
2019-01-03T05:51:46.234Z,-0.20
2019-01-03T05:54:38.526Z,-0.30
2019-01-03T05:57:29.264Z,-0.20
2019-01-03T06:00:31.629Z,-0.20
2019-01-03T06:03:23.927Z,-0.30
2019-01-03T06:06:10.983Z,-0.40
2019-01-03T06:09:06.516Z,-0.40
2019-01-03T06:11:55.864Z,-0.50
2019-01-03T06:14:48.718Z,-0.50
2019-01-03T06:17:36.986Z,-0.60
2019-01-03T06:20:36.978Z,-0.70
2019-01-03T06:23:41.902Z,-0.80
2019-01-03T06:26:42.661Z,-0.90
2019-01-03T06:29:34.174Z,-1.00
2019-01-03T06:32:22.437Z,-1.10
2019-01-03T06:35:11.822Z,-1.00
2019-01-03T06:38:01.774Z,-1.00
2019-01-03T06:40:53.791Z,-1.20
2019-01-03T06:43:52.392Z,-1.30
2019-01-03T06:46:47.728Z,-1.30
2019-01-03T06:49:36.259Z,-1.30
2019-01-03T06:52:29.121Z,-1.40
2019-01-03T06:55:29.665Z,-1.50
2019-01-03T06:58:24.968Z,-1.40
2019-01-03T07:01:14.700Z,-1.50
2019-01-03T07:04:02.455Z,-1.40
2019-01-03T07:07:03.749Z,-1.40
2019-01-03T07:09:55.986Z,-1.40
2019-01-03T07:12:45.132Z,-1.30
2019-01-03T07:15:54.554Z,-1.30
2019-01-03T07:18:43.026Z,-1.40
2019-01-03T07:21:30.950Z,-1.50
2019-01-03T07:24:17.654Z,-1.40
2019-01-03T07:27:06.116Z,-1.30
2019-01-03T07:29:55.458Z,-1.20
2019-01-03T07:32:57.957Z,-1.20
2019-01-03T07:36:02.568Z,-1.20
2019-01-03T07:38:58.395Z,-1.30
2019-01-03T07:41:46.838Z,-1.30
2019-01-03T07:44:35.190Z,-1.20
2019-01-03T07:47:27.137Z,-1.10
2019-01-03T07:50:18.909Z,-1.20
2019-01-03T07:53:11.592Z,-1.00
2019-01-03T07:56:13.207Z,-0.90
2019-01-03T07:59:01.288Z,-0.90
2019-01-03T08:01:50.649Z,-0.80
2019-01-03T08:04:39.210Z,-0.80
2019-01-03T08:07:26.438Z,-0.70
2019-01-03T08:10:16.411Z,-0.50
2019-01-03T08:13:06.111Z,-0.50
2019-01-03T08:15:59.051Z,-0.40
2019-01-03T08:18:46.639Z,0.20
2019-01-03T08:21:47.231Z,1.00
2019-01-03T08:24:37.289Z,0.80
2019-01-03T08:27:36.115Z,0.60
2019-01-03T08:30:17.364Z,0.50
2019-01-03T08:33:10.346Z,0.50
2019-01-03T08:35:58.353Z,0.40
2019-01-03T08:38:51.074Z,0.20
2019-01-03T08:41:43.849Z,0.30
2019-01-03T08:44:42.440Z,0.30
2019-01-03T08:47:31.159Z,0.40
2019-01-03T08:50:32.772Z,0.40
2019-01-03T08:53:20.259Z,0.40
2019-01-03T08:56:10.896Z,0.50
2019-01-03T08:59:03.695Z,0.40
2019-01-03T09:02:08.665Z,0.40
2019-01-03T09:05:02.544Z,0.50
2019-01-03T09:08:02.380Z,0.50
2019-01-03T09:10:50.894Z,0.50
2019-01-03T09:13:43.755Z,0.40
2019-01-03T09:16:36.219Z,0.60
2019-01-03T09:19:32.635Z,0.50
2019-01-03T09:22:31.344Z,0.60
2019-01-03T09:25:26.672Z,0.80
2019-01-03T09:28:15.830Z,0.90
2019-01-03T09:31:06.638Z,0.90
2019-01-03T09:34:02.323Z,1.10
2019-01-03T09:36:50.504Z,1.10
2019-01-03T09:39:49.381Z,1.20
2019-01-03T09:42:51.336Z,1.30
2019-01-03T09:45:22.062Z,1.50
2019-01-03T09:47:52.481Z,1.60
2019-01-03T09:50:23.461Z,1.70
2019-01-03T09:52:53.894Z,1.90
2019-01-03T09:55:24.396Z,2.00
2019-01-03T09:57:56.461Z,2.10
2019-01-03T10:00:27.049Z,2.00
2019-01-03T10:02:57.600Z,1.80
2019-01-03T10:05:28.135Z,1.70
2019-01-03T10:07:58.749Z,1.70
2019-01-03T10:10:29.263Z,1.70
2019-01-03T10:13:00.313Z,1.70
2019-01-03T10:15:32.011Z,1.70
2019-01-03T10:18:04.341Z,1.60
2019-01-03T10:20:36.294Z,1.50
2019-01-03T10:23:08.315Z,1.80
2019-01-03T10:25:39.412Z,1.80
2019-01-03T10:28:10.040Z,2.10
2019-01-03T10:30:40.655Z,2.10
2019-01-03T10:33:11.249Z,2.00
2019-01-03T10:35:42.921Z,2.10
2019-01-03T10:38:13.797Z,2.20
2019-01-03T10:40:44.280Z,2.10
2019-01-03T10:43:15.195Z,2.00
2019-01-03T10:45:46.659Z,2.00
2019-01-03T10:48:17.722Z,2.10
2019-01-03T10:50:48.434Z,2.20
2019-01-03T10:53:18.918Z,2.30
2019-01-03T10:55:49.413Z,2.10
2019-01-03T10:58:20.029Z,2.00
2019-01-03T11:00:50.549Z,2.10
2019-01-03T11:03:21.117Z,2.20
2019-01-03T11:05:52.175Z,2.20
2019-01-03T11:08:23.245Z,2.10
2019-01-03T11:10:54.129Z,1.90
2019-01-03T11:13:24.806Z,2.10
2019-01-03T11:15:55.347Z,2.10
2019-01-03T11:18:26.098Z,2.20
2019-01-03T11:20:57.081Z,2.10
2019-01-03T11:23:29.756Z,2.10
2019-01-03T11:26:01.417Z,2.00
2019-01-03T11:28:32.422Z,1.90
2019-01-03T11:31:03.833Z,2.00
2019-01-03T11:33:34.486Z,2.30
2019-01-03T11:36:05.141Z,2.90
2019-01-03T11:38:35.874Z,3.20
2019-01-03T11:41:06.701Z,3.50
2019-01-03T11:43:37.264Z,4.50
2019-01-03T11:46:07.833Z,5.50
2019-01-03T11:48:38.449Z,6.90
2019-01-03T11:51:10.422Z,7.50
2019-01-03T11:53:41.214Z,7.40
2019-01-03T11:56:12.570Z,7.40
2019-01-03T11:58:44.538Z,7.60
2019-01-03T12:01:15.034Z,6.90
2019-01-03T12:03:45.941Z,6.80
2019-01-03T12:06:17.932Z,6.70
2019-01-03T12:08:49.188Z,6.40
2019-01-03T12:11:20.437Z,6.40
2019-01-03T12:13:51.576Z,7.00
2019-01-03T12:16:22.550Z,7.70
2019-01-03T12:18:54.870Z,8.10
2019-01-03T12:21:26.529Z,7.80
2019-01-03T12:23:57.906Z,8.70
2019-01-03T12:26:29.578Z,9.70
2019-01-03T12:29:00.617Z,9.10
2019-01-03T12:31:31.416Z,8.80
2019-01-03T12:34:03.094Z,8.20
2019-01-03T12:36:35.445Z,7.00
2019-01-03T12:39:08.956Z,6.30
2019-01-03T12:41:40.000Z,6.00
2019-01-03T12:44:10.390Z,6.50
2019-01-03T12:46:42.056Z,7.30
2019-01-03T12:49:13.175Z,8.10
2019-01-03T12:51:45.093Z,8.30
2019-01-03T12:54:15.825Z,8.30
2019-01-03T12:56:47.353Z,8.90
2019-01-03T12:59:18.445Z,8.90
2019-01-03T13:01:49.033Z,8.80
2019-01-03T13:04:19.629Z,8.80
2019-01-03T13:06:50.797Z,8.00
2019-01-03T13:09:21.812Z,7.50
2019-01-03T13:11:52.254Z,6.90
2019-01-03T13:14:22.861Z,6.20
2019-01-03T13:16:53.219Z,5.70
2019-01-03T13:19:23.628Z,5.20
2019-01-03T13:21:55.053Z,4.90
2019-01-03T13:24:25.878Z,4.50
2019-01-03T13:27:00.657Z,4.00
2019-01-03T13:29:32.403Z,3.50
2019-01-03T13:32:03.275Z,3.30
2019-01-03T13:34:34.033Z,3.20
2019-01-03T13:37:04.852Z,3.10
2019-01-03T13:39:35.832Z,2.80
2019-01-03T13:42:08.414Z,2.60
2019-01-03T13:44:40.708Z,2.40
2019-01-03T13:47:11.548Z,2.30
2019-01-03T13:49:42.565Z,2.20
2019-01-03T13:52:13.447Z,2.20
2019-01-03T13:54:43.993Z,2.00
2019-01-03T13:57:16.702Z,1.90
2019-01-03T13:59:47.289Z,1.90
2019-01-03T14:02:18.055Z,1.70
2019-01-03T14:04:50.068Z,1.60
2019-01-03T14:07:20.658Z,1.60
2019-01-03T14:09:51.758Z,1.50
2019-01-03T14:12:22.539Z,1.40
2019-01-03T14:14:53.098Z,1.40
2019-01-03T14:17:24.789Z,1.30
2019-01-03T14:19:55.424Z,1.10
2019-01-03T14:22:25.806Z,1.10
2019-01-03T14:24:56.479Z,1.00
2019-01-03T14:27:27.050Z,1.00
2019-01-03T14:29:57.624Z,0.90
2019-01-03T14:32:28.391Z,0.80
2019-01-03T14:34:58.766Z,0.70
2019-01-03T14:37:30.279Z,0.60
2019-01-03T14:40:01.059Z,0.60
2019-01-03T14:42:31.876Z,0.60
2019-01-03T14:45:02.445Z,0.60
2019-01-03T14:47:33.286Z,0.50
2019-01-03T14:50:03.737Z,0.40
2019-01-03T14:52:34.923Z,0.40
2019-01-03T14:55:05.711Z,0.30
2019-01-03T14:57:36.834Z,0.10
2019-01-03T15:00:08.751Z,0.00
2019-01-03T15:02:40.634Z,0.10
2019-01-03T15:05:14.043Z,0.00
2019-01-03T15:07:43.983Z,-0.10
2019-01-03T15:10:14.833Z,-0.10
2019-01-03T15:12:45.785Z,-0.20
2019-01-03T15:15:16.491Z,-0.30
2019-01-03T15:17:46.910Z,-0.30
2019-01-03T15:20:17.548Z,-0.40
2019-01-03T15:22:48.193Z,-0.40
2019-01-03T15:25:18.507Z,-0.40
2019-01-03T15:27:49.945Z,-0.40
2019-01-03T15:30:21.377Z,-0.50
2019-01-03T15:32:52.138Z,-0.50
2019-01-03T15:35:23.786Z,-0.60
2019-01-03T15:37:55.366Z,-0.60
2019-01-03T15:40:28.285Z,-0.50
2019-01-03T15:42:59.864Z,-0.60
2019-01-03T15:45:31.113Z,-0.60
2019-01-03T15:48:02.141Z,-0.60
2019-01-03T15:50:33.761Z,-0.70
2019-01-03T15:53:05.705Z,-0.70
2019-01-03T15:55:36.458Z,-0.80
2019-01-03T15:58:06.671Z,-0.70
2019-01-03T16:00:37.288Z,-0.70
2019-01-03T16:03:07.965Z,-0.70
2019-01-03T16:05:39.026Z,-0.60
2019-01-03T16:08:09.939Z,-0.60
2019-01-03T16:10:40.243Z,-0.60
2019-01-03T16:13:10.796Z,-0.70
2019-01-03T16:15:41.847Z,-0.80
2019-01-03T16:18:13.244Z,-0.90
2019-01-03T16:20:47.059Z,-0.90
2019-01-03T16:23:17.665Z,-1.00
2019-01-03T16:25:50.157Z,-1.00
2019-01-03T16:28:20.662Z,-1.00
2019-01-03T16:30:51.225Z,-1.10
2019-01-03T16:33:22.165Z,-1.20
2019-01-03T16:35:52.665Z,-1.10
2019-01-03T16:38:23.361Z,-1.30
2019-01-03T16:40:54.405Z,-1.40
2019-01-03T16:43:27.165Z,-1.30
2019-01-03T16:45:58.325Z,-1.20
2019-01-03T16:48:29.474Z,-1.20
2019-01-03T16:51:00.129Z,-1.30
2019-01-03T16:53:31.687Z,-1.30
2019-01-03T16:56:03.033Z,-1.30
2019-01-03T16:58:33.552Z,-1.30
2019-01-03T17:01:04.339Z,-1.30
2019-01-03T17:03:35.211Z,-1.20
2019-01-03T17:06:07.512Z,-1.30
2019-01-03T17:08:38.179Z,-1.20
2019-01-03T17:11:10.039Z,-1.30
2019-01-03T17:13:40.805Z,-1.30
2019-01-03T17:16:12.022Z,-1.30
2019-01-03T17:18:43.478Z,-1.30
2019-01-03T17:21:14.885Z,-1.30
2019-01-03T17:23:46.099Z,-1.30
2019-01-03T17:26:18.370Z,-1.30
2019-01-03T17:28:49.480Z,-1.20
2019-01-03T17:31:20.546Z,-1.20
2019-01-03T17:33:53.331Z,-1.20
2019-01-03T17:36:25.289Z,-1.10
2019-01-03T17:38:57.849Z,-1.20
2019-01-03T17:41:48.866Z,-1.10
2019-01-03T17:44:20.305Z,-1.10
2019-01-03T17:46:51.257Z,-1.00
2019-01-03T17:49:22.793Z,-1.00
2019-01-03T17:51:54.374Z,-1.00
2019-01-03T17:54:25.231Z,-1.00
2019-01-03T17:56:56.147Z,-0.90
2019-01-03T17:59:28.536Z,-0.80
2019-01-03T18:01:59.738Z,-0.70
2019-01-03T18:04:31.137Z,-0.90
2019-01-03T18:07:01.557Z,-0.90
2019-01-03T18:09:32.676Z,-0.90
2019-01-03T18:12:03.979Z,-0.90
2019-01-03T18:14:35.399Z,-0.90
2019-01-03T18:17:06.897Z,-0.90
2019-01-03T18:19:39.303Z,-1.00
2019-01-03T18:22:10.002Z,-1.00
2019-01-03T18:24:41.113Z,-1.00
2019-01-03T18:27:13.609Z,-1.00
2019-01-03T18:29:44.256Z,-1.00
2019-01-03T18:32:15.821Z,-1.10
2019-01-03T18:34:46.932Z,-1.10
2019-01-03T18:37:18.457Z,-1.20
2019-01-03T18:39:49.699Z,-1.30
2019-01-03T18:42:20.575Z,-1.40
2019-01-03T18:44:52.017Z,-1.50
2019-01-03T18:47:23.299Z,-1.50
2019-01-03T18:49:54.145Z,-1.50
2019-01-03T18:52:25.505Z,-1.40
2019-01-03T18:54:57.229Z,-1.50
2019-01-03T18:57:28.059Z,-1.40
2019-01-03T18:59:59.512Z,-1.50
2019-01-03T19:02:30.831Z,-1.40
2019-01-03T19:05:02.245Z,-1.50
2019-01-03T19:07:33.865Z,-1.60
2019-01-03T19:10:05.741Z,-1.50
2019-01-03T19:12:37.047Z,-1.50
2019-01-03T19:15:10.232Z,-1.60
2019-01-03T19:17:41.979Z,-1.70
2019-01-03T19:20:14.334Z,-1.70
2019-01-03T19:22:45.923Z,-1.80
2019-01-03T19:25:18.653Z,-1.80
2019-01-03T19:27:49.247Z,-1.90
2019-01-03T19:30:20.843Z,-2.00
2019-01-03T19:32:52.502Z,-2.10
2019-01-03T19:35:23.617Z,-2.10
2019-01-03T19:37:54.957Z,-2.00
2019-01-03T19:40:26.825Z,-2.10
2019-01-03T19:42:57.922Z,-2.10
2019-01-03T19:45:28.693Z,-2.10
2019-01-03T19:47:59.359Z,-2.10
2019-01-03T19:50:31.218Z,-2.10
2019-01-03T19:53:02.909Z,-2.10
2019-01-03T19:55:33.857Z,-2.10
2019-01-03T19:58:05.586Z,-2.20
2019-01-03T20:00:37.143Z,-2.20
2019-01-03T20:03:08.191Z,-2.10
2019-01-03T20:05:39.945Z,-2.10
2019-01-03T20:08:12.706Z,-2.10
2019-01-03T20:10:44.947Z,-2.10
2019-01-03T20:13:16.267Z,-2.00
2019-01-03T20:15:47.977Z,-2.10
2019-01-03T20:18:19.189Z,-2.10
2019-01-03T20:20:52.942Z,-2.10
2019-01-03T20:23:22.884Z,-2.20
2019-01-03T20:25:55.987Z,-2.20
2019-01-03T20:28:28.646Z,-2.30
2019-01-03T20:31:00.220Z,-2.30
2019-01-03T20:33:31.607Z,-2.40
2019-01-03T20:36:05.349Z,-2.40
2019-01-03T20:38:39.103Z,-2.40
2019-01-03T20:41:11.172Z,-2.40
2019-01-03T20:43:42.612Z,-2.40
2019-01-03T20:46:14.989Z,-2.50
2019-01-03T20:48:46.913Z,-2.50
2019-01-03T20:51:17.755Z,-2.50
2019-01-03T20:53:48.345Z,-2.60
2019-01-03T20:56:19.216Z,-2.60
2019-01-03T20:58:51.881Z,-2.50
2019-01-03T21:01:22.958Z,-2.60
2019-01-03T21:03:54.650Z,-2.60
2019-01-03T21:06:31.728Z,-2.60
2019-01-03T21:09:04.341Z,-2.60
2019-01-03T21:11:35.617Z,-2.70
2019-01-03T21:14:07.055Z,-2.70
2019-01-03T21:16:38.545Z,-2.70
2019-01-03T21:19:10.611Z,-2.70
2019-01-03T21:21:43.633Z,-2.70
2019-01-03T21:24:14.918Z,-2.70
2019-01-03T21:26:46.771Z,-2.70
2019-01-03T21:29:18.182Z,-2.70
2019-01-03T21:31:49.367Z,-2.60
2019-01-03T21:34:21.226Z,-2.70
2019-01-03T21:36:52.717Z,-2.60
2019-01-03T21:39:25.243Z,-2.50
2019-01-03T21:41:56.277Z,-2.40
2019-01-03T21:44:26.713Z,-2.30
2019-01-03T21:46:58.376Z,-2.40
2019-01-03T21:49:29.637Z,-2.30
2019-01-03T21:52:00.384Z,-2.30
2019-01-03T21:54:31.906Z,-2.40
2019-01-03T21:57:02.892Z,-2.20
2019-01-03T21:59:33.665Z,-2.20
2019-01-03T22:02:05.188Z,-2.30
2019-01-03T22:04:36.381Z,-2.20
2019-01-03T22:07:08.260Z,-2.20
2019-01-03T22:09:39.072Z,-2.20
2019-01-03T22:12:10.645Z,-2.20
2019-01-03T22:14:41.358Z,-2.30
2019-01-03T22:17:13.497Z,-2.40
2019-01-03T22:19:44.144Z,-2.50
2019-01-03T22:22:15.605Z,-2.50
2019-01-03T22:24:46.687Z,-2.50
2019-01-03T22:27:18.517Z,-2.50
2019-01-03T22:29:50.294Z,-2.50
2019-01-03T22:32:20.914Z,-2.40
2019-01-03T22:34:53.292Z,-2.40
2019-01-03T22:37:24.606Z,-2.30
2019-01-03T22:39:55.429Z,-2.30
2019-01-03T22:42:27.227Z,-2.30
2019-01-03T22:44:58.377Z,-2.40
2019-01-03T22:47:29.110Z,-2.30
2019-01-03T22:49:59.898Z,-2.40
2019-01-03T22:52:30.819Z,-2.40
2019-01-03T22:55:01.296Z,-2.40
2019-01-03T22:57:32.016Z,-2.40
2019-01-03T23:00:02.429Z,-2.40
2019-01-03T23:02:33.136Z,-2.30
2019-01-03T23:05:04.337Z,-2.30
2019-01-03T23:07:35.932Z,-2.20
2019-01-03T23:10:07.353Z,-2.10
2019-01-03T23:12:41.100Z,-2.10
2019-01-03T23:15:11.500Z,-2.10
2019-01-03T23:17:42.350Z,-2.10
2019-01-03T23:20:12.879Z,-2.20
2019-01-03T23:22:46.595Z,-2.10
2019-01-03T23:25:16.972Z,-2.10
2019-01-03T23:27:47.466Z,-2.10
2019-01-03T23:30:19.567Z,-2.00
2019-01-03T23:32:50.504Z,-2.10
2019-01-03T23:35:21.435Z,-2.10
2019-01-03T23:37:51.846Z,-2.00
2019-01-03T23:40:22.548Z,-2.00
2019-01-03T23:42:53.272Z,-1.90
2019-01-03T23:45:25.576Z,-2.00
2019-01-03T23:48:00.538Z,-1.90
2019-01-03T23:50:35.596Z,-1.90
2019-01-03T23:53:06.765Z,-1.80
2019-01-03T23:55:49.128Z,-1.80
2019-01-03T23:58:22.452Z,-1.90
